Portada
METAR-TAF:

METAR-TAF

Aeroports :

Mahshahr, Iran

latitud: 30-33-23N, longitud: 049-09-07E, altitud: 2 m

Observació

L'informe es va fer fa 1 hora i 6 minuts, a les 13:00 UTC
Vent 27 kt del Oest/Nord-Oest
Temperatura 46°C
Humitat 11%
Pressió 992 hPa
Visibilitat: 2000 m
Pols estès

METAR: OIAM 161300Z 30027KT 2000 DU NSC 46/08 Q0992

Hora: 18:36 (14:06 UTC)


TAF: manca

Observacions i pronòstics meteorològics de més de 4000 aeroports (METAR i TAF).

Les estacions disponibles són els punts grocs i vermells al mapa.

Posi el ratolí al punt desitjat per veure el nom de l'estació.

Feu clic per veure les observacions i els pronòstics meteorològics.

Per canviar el mapa: feu clic els botons verds amb una creu de color negre per apropar; al botó verd amb un guió per allunyar la imatge; o en les fletxes verdes per a mapes adjacents.


METAR-TAF: